Aeroporto :
LOGIN :

Iscrizione | Disclaimer

   EN    FR    IT 

 










Sommario :    VFR   VFR Marginale   IFR   IFR Intensivo   IFR Molto Intensivo
Visibilità : 
Base nubi : 
>= 8 km
>= 3000ft
5 / 8 km
1000 / 3000 ft
1500m / 5 km
500 / 1000 ft
800 / 1500m
200 / 500 ft
< 800m
< 200 ft
Simboli :   Temporali  Nebbia  Neve Forte  Precipitazioni Forti  Vento > 20 kt
SIGMETs :   Varie  Temporali  Ghiacco  Turbolenza  Onda orograficha  Ceneri Vulcaniche






- Altitudine del aeroporto : 2356 ft


LZTT - Poprad Tatry

ULTIMO METAR :
  • 120600Z 17005KT 9999 SCT035 BKN060 03/02 Q1013 NOSIG

METARs OBSOLETI :
  • 120530Z VRB03KT 9999 FEW036 02/01 Q1013 NOSIG
  • 120500Z 23003KT 170V280 9999 SCT046 02/01 Q1013
  • 120430Z 28006KT 9999 FEW040 SCT053 02/01 Q1014
  • 120400Z 21006KT 9999 SCT053 02/01 Q1013
  • 120330Z 25006KT 9999 FEW038 SCT056 01/01 Q1014

TAF TAF LZTT
Valido dal 12 a 06 ore il 13 a 06 ore UTC


120500Z 1206/1306 20005KT 9999 FEW040 SCT050
BECMG 1207/1209 VRB02KT
BECMG 1213/1215 BKN035
PROB40
TEMPO 1213/1218 -RA
BECMG 1218/1220 4500 -RA BR FEW010 BKN023
TEMPO 1219/1306 RA



MetMap, La meteo Aeronautica in un colpo d'occhio ! - Copyright ORBIFLY Dicembre 2007 - Disclaimer

ORBIFLY MET'MAP TEAM :

Programmazione e sviluppo : Alexandra Zaïnal
Concezione e sviluppo : Baudouin d'Aumeries
Co-Programmazione e sviluppo : Marc-Olivier Méhu
Supporto tecnico e logistico : Manuel Goepfert
Aiuto per la traduzione : Arnaldo La Scala

Contatto : metmap@orbifly.com




FONTI E CREDITI :

   NOAA